createdAt,value
2022-08-06T00:00:26.547Z,101106.06
2022-08-06T00:02:55.574Z,101206.28
2022-08-06T00:05:23.762Z,101172.25
2022-08-06T00:07:57.962Z,101070.16
2022-08-06T00:10:29.202Z,101094.16
2022-08-06T00:13:00.283Z,101248.63
2022-08-06T00:16:09.392Z,101009.50
2022-08-06T00:18:18.549Z,101153.34
2022-08-06T00:20:46.481Z,101189.56
2022-08-06T00:23:18.097Z,101173.56
2022-08-06T00:25:52.177Z,101170.31
2022-08-06T00:28:30.709Z,101079.41
2022-08-06T00:31:01.044Z,101188.78
2022-08-06T00:33:49.827Z,101225.34
2022-08-06T00:36:24.877Z,101097.78
2022-08-06T00:38:56.952Z,101197.44
2022-08-06T00:41:27.226Z,101015.44
2022-08-06T00:44:04.024Z,101261.69
2022-08-06T00:46:32.937Z,101163.31
2022-08-06T00:49:11.474Z,101160.16
2022-08-06T00:51:50.165Z,101236.59
2022-08-06T00:54:28.556Z,101238.25
2022-08-06T00:57:03.859Z,101105.78
2022-08-06T00:59:39.387Z,101026.78
2022-08-06T01:02:09.671Z,101061.44
2022-08-06T01:04:38.169Z,101020.16
2022-08-06T01:07:09.154Z,100952.34
2022-08-06T01:09:46.205Z,101189.81
2022-08-06T01:12:32.316Z,101153.78
2022-08-06T01:15:15.956Z,101009.06
2022-08-06T01:17:56.219Z,101239.91
2022-08-06T01:21:58.069Z,101173.34
2022-08-06T01:23:54.211Z,101279.72
2022-08-06T01:26:34.115Z,101146.03
2022-08-06T01:29:09.731Z,101093.91
2022-08-06T01:31:47.897Z,101158.06
2022-08-06T01:34:25.511Z,101052.75
2022-08-06T01:37:07.687Z,101261.56
2022-08-06T01:42:35.081Z,101239.06
2022-08-06T01:45:09.664Z,101321.25
2022-08-06T01:47:54.654Z,101337.22
2022-08-06T01:50:28.008Z,101434.25
2022-08-06T01:53:00.276Z,101248.03
2022-08-06T01:55:42.522Z,101363.81
2022-08-06T01:58:27.691Z,101214.94
2022-08-06T02:01:01.859Z,101345.00
2022-08-06T02:03:39.217Z,101414.28
2022-08-06T02:06:23.141Z,101301.84
2022-08-06T02:09:21.747Z,101413.03
2022-08-06T02:12:03.421Z,101325.97
2022-08-06T02:14:36.980Z,101355.69
2022-08-06T02:17:13.731Z,101316.84
2022-08-06T02:19:48.404Z,101308.16
2022-08-06T02:22:30.541Z,101506.38
2022-08-06T02:25:02.753Z,101281.25
2022-08-06T02:27:43.484Z,101364.28
2022-08-06T02:30:21.647Z,101488.75
2022-08-06T02:32:58.320Z,101273.78
2022-08-06T02:35:35.038Z,101436.19
2022-08-06T02:38:11.706Z,101500.06
2022-08-06T02:40:45.930Z,101373.66
2022-08-06T02:43:19.995Z,101349.34
2022-08-06T02:45:59.082Z,101432.72
2022-08-06T02:48:32.827Z,101403.53
2022-08-06T02:51:05.232Z,101464.75
2022-08-06T02:54:04.119Z,101530.13
2022-08-06T02:56:34.070Z,101520.91
2022-08-06T02:59:12.268Z,101522.25
2022-08-06T03:01:45.205Z,101552.44
2022-08-06T03:04:16.759Z,101568.28
2022-08-06T03:06:48.979Z,101624.59
2022-08-06T03:09:18.926Z,101699.91
2022-08-06T03:11:48.023Z,101572.59
2022-08-06T03:14:53.977Z,101638.66
2022-08-06T03:17:10.239Z,101704.13
2022-08-06T03:19:57.831Z,101602.78
2022-08-06T03:22:35.630Z,101612.44
2022-08-06T03:25:15.115Z,101736.69
2022-08-06T03:27:45.381Z,101730.69
2022-08-06T03:30:30.579Z,101590.78
2022-08-06T03:33:07.900Z,101540.34
2022-08-06T03:35:54.403Z,101604.16
2022-08-06T03:38:29.066Z,101489.44
2022-08-06T03:40:59.028Z,101523.75
2022-08-06T03:43:46.026Z,101678.16
2022-08-06T03:46:26.831Z,101620.22
2022-08-06T03:48:56.233Z,101533.34
2022-08-06T03:51:51.091Z,101529.88
2022-08-06T03:54:20.019Z,101577.50
2022-08-06T03:57:01.358Z,101759.38
2022-08-06T03:59:43.888Z,101524.28
2022-08-06T04:02:44.737Z,101488.25
2022-08-06T04:05:16.667Z,101427.19
2022-08-06T04:07:54.435Z,101489.03
2022-08-06T04:10:33.406Z,101546.47
2022-08-06T04:13:08.708Z,101655.69
2022-08-06T04:15:54.344Z,101570.03
2022-08-06T04:18:26.626Z,101629.53
2022-08-06T04:21:06.034Z,101640.00
2022-08-06T04:23:46.877Z,101642.69
2022-08-06T04:26:18.669Z,101737.44
2022-08-06T04:28:53.104Z,101715.69
2022-08-06T04:32:11.771Z,101751.41
2022-08-06T04:34:20.636Z,101762.91
2022-08-06T04:36:53.869Z,101728.88
2022-08-06T04:39:24.846Z,101758.44
2022-08-06T04:42:06.384Z,101644.63
2022-08-06T04:44:35.112Z,101749.00
2022-08-06T04:47:05.064Z,101705.94
2022-08-06T04:50:02.244Z,101896.28
2022-08-06T04:52:46.835Z,101808.38
2022-08-06T04:55:25.273Z,101684.41
2022-08-06T04:58:03.573Z,101677.56
2022-08-06T05:01:03.528Z,101843.84
2022-08-06T05:04:06.959Z,101845.88
2022-08-06T05:06:24.498Z,101756.50
2022-08-06T05:09:07.211Z,101875.56
2022-08-06T05:11:57.759Z,101899.44
2022-08-06T05:14:32.411Z,101754.38
2022-08-06T05:17:08.682Z,101815.16
2022-08-06T05:19:39.288Z,101742.06
2022-08-06T05:22:19.476Z,101626.31
2022-08-06T05:25:01.355Z,101611.56
2022-08-06T05:27:54.711Z,101607.72
2022-08-06T05:30:23.492Z,101269.25
2022-08-06T05:32:56.889Z,101548.28
2022-08-06T05:35:40.515Z,101450.53
2022-08-06T05:38:13.338Z,101360.00
2022-08-06T05:40:53.475Z,101424.75
2022-08-06T05:43:58.280Z,101421.19
2022-08-06T05:46:17.613Z,101373.44
2022-08-06T05:48:55.880Z,101333.69
2022-08-06T05:51:45.026Z,101308.38
2022-08-06T05:54:24.007Z,101121.88
2022-08-06T05:57:04.602Z,101335.97
2022-08-06T05:59:56.929Z,101371.81
2022-08-06T06:02:27.251Z,101470.75
2022-08-06T06:06:03.550Z,101048.69
2022-08-06T06:08:08.898Z,101334.19
2022-08-06T06:10:34.600Z,101232.06
2022-08-06T06:13:03.876Z,101318.97
2022-08-06T06:16:04.355Z,101441.09
2022-08-06T06:18:53.860Z,101224.84
2022-08-06T06:21:34.507Z,101213.44
2022-08-06T06:24:16.659Z,101071.66
2022-08-06T06:26:52.616Z,100981.56
2022-08-06T06:30:05.767Z,101302.50
2022-08-06T06:32:41.346Z,101457.56
2022-08-06T06:35:24.817Z,101217.81
2022-08-06T06:38:00.097Z,101425.31
2022-08-06T06:40:52.853Z,101433.50
2022-08-06T06:43:45.838Z,101447.75
2022-08-06T06:46:36.400Z,101384.88
2022-08-06T06:49:58.974Z,101211.47
2022-08-06T06:52:09.634Z,101227.06
2022-08-06T06:54:46.031Z,101410.94
2022-08-06T06:57:42.749Z,101302.50
2022-08-06T07:00:45.167Z,101145.03
2022-08-06T07:03:02.626Z,101115.38
2022-08-06T07:06:04.733Z,101198.22
2022-08-06T07:08:32.129Z,101172.66
2022-08-06T07:11:07.626Z,100984.22
2022-08-06T07:13:46.721Z,101240.03
2022-08-06T07:16:22.616Z,101130.59
2022-08-06T07:19:06.244Z,101309.63
2022-08-06T07:21:42.234Z,101147.47
2022-08-06T07:24:36.738Z,101304.53
2022-08-06T07:27:03.434Z,101331.50
2022-08-06T07:29:48.548Z,101170.59
2022-08-06T07:32:32.087Z,101085.22
2022-08-06T07:35:00.990Z,101209.50
2022-08-06T07:37:38.357Z,101076.78
2022-08-06T07:40:09.473Z,101114.41
2022-08-06T07:42:39.785Z,101294.88
2022-08-06T07:45:11.155Z,101147.81
2022-08-06T07:47:54.577Z,101226.16
2022-08-06T07:50:25.405Z,100999.34
2022-08-06T07:52:57.615Z,101091.91
2022-08-06T07:55:36.976Z,101211.78
2022-08-06T07:58:09.613Z,101372.84
2022-08-06T08:00:39.241Z,101176.84
2022-08-06T08:03:56.277Z,101130.66
2022-08-06T08:06:21.246Z,101102.25
2022-08-06T08:08:53.010Z,100890.41
2022-08-06T08:11:38.072Z,101159.50
2022-08-06T08:14:12.778Z,101096.44
2022-08-06T08:16:42.557Z,101205.91
2022-08-06T08:19:24.623Z,100921.66
2022-08-06T08:21:53.009Z,101117.66
2022-08-06T08:24:22.080Z,100984.94
2022-08-06T08:27:04.468Z,101179.25
2022-08-06T08:29:37.733Z,101081.13
2022-08-06T08:32:14.749Z,100924.47
2022-08-06T08:34:46.922Z,100963.88
2022-08-06T08:37:18.518Z,101184.91
2022-08-06T08:39:48.104Z,101125.22
2022-08-06T08:42:31.410Z,101256.63
2022-08-06T08:45:01.084Z,100889.94
2022-08-06T08:47:46.560Z,101106.50
2022-08-06T08:50:21.158Z,100906.25
2022-08-06T08:52:52.650Z,100857.09
2022-08-06T08:57:08.031Z,100972.50
2022-08-06T08:58:37.271Z,101170.13
2022-08-06T09:01:02.544Z,100993.09
2022-08-06T09:03:30.399Z,101114.97
2022-08-06T09:06:01.314Z,101188.81
2022-08-06T09:08:58.893Z,100945.69
2022-08-06T09:12:02.536Z,100981.78
2022-08-06T09:14:08.769Z,101120.16
2022-08-06T09:16:37.879Z,100993.69
2022-08-06T09:19:10.705Z,101130.16
2022-08-06T09:21:43.492Z,101092.63
2022-08-06T09:24:11.445Z,101052.53
2022-08-06T09:26:53.796Z,101153.16
2022-08-06T09:29:33.707Z,101070.97
2022-08-06T09:32:08.794Z,101035.84
2022-08-06T09:34:50.268Z,100888.00
2022-08-06T09:37:30.331Z,100986.81
2022-08-06T09:40:18.550Z,100886.16
2022-08-06T09:42:51.661Z,100922.69
2022-08-06T09:45:42.878Z,100991.56
2022-08-06T09:48:17.642Z,100924.97
2022-08-06T09:50:50.718Z,100917.22
2022-08-06T09:53:22.254Z,100978.63
2022-08-06T09:55:50.620Z,101011.41
2022-08-06T09:58:37.424Z,101067.38
2022-08-06T10:01:22.683Z,100957.44
2022-08-06T10:04:03.343Z,100865.47
2022-08-06T10:06:54.704Z,100963.91
2022-08-06T10:09:44.639Z,101095.06
2022-08-06T10:12:19.249Z,101081.00
2022-08-06T10:14:48.796Z,101028.56
2022-08-06T10:17:19.245Z,101055.63
2022-08-06T10:19:52.577Z,100956.13
2022-08-06T10:22:26.985Z,101070.97
2022-08-06T10:24:57.139Z,101069.63
2022-08-06T10:27:36.561Z,101101.84
2022-08-06T10:30:09.670Z,101067.38
2022-08-06T10:32:44.087Z,101111.47
2022-08-06T10:35:14.792Z,101100.94
2022-08-06T10:37:47.679Z,100894.13
2022-08-06T10:40:30.362Z,100895.22
2022-08-06T10:42:59.270Z,100894.59
2022-08-06T10:45:47.136Z,100985.00
2022-08-06T10:48:58.841Z,100833.38
2022-08-06T10:51:07.117Z,101005.16
2022-08-06T10:54:02.131Z,100993.53
2022-08-06T11:02:04.237Z,100850.31
2022-08-06T11:04:43.430Z,100925.84
2022-08-06T11:08:08.714Z,100844.97
2022-08-06T11:10:51.282Z,101013.56
2022-08-06T11:13:36.776Z,100978.78
2022-08-06T11:16:27.666Z,100904.97
2022-08-06T11:19:02.772Z,101017.47
2022-08-06T11:22:02.705Z,101052.81
2022-08-06T11:24:28.640Z,101092.19
2022-08-06T11:27:01.948Z,101090.97
2022-08-06T11:30:09.709Z,101074.06
2022-08-06T11:32:48.677Z,101120.00
2022-08-06T11:35:51.995Z,101048.44
2022-08-06T11:38:59.039Z,100986.34
2022-08-06T11:41:54.436Z,100972.66
2022-08-06T11:44:18.558Z,100838.63
2022-08-06T11:46:50.808Z,100903.94
2022-08-06T11:49:22.710Z,100937.53
2022-08-06T11:52:06.370Z,101015.06
2022-08-06T11:54:39.209Z,101116.97
2022-08-06T11:57:41.518Z,101064.78
2022-08-06T12:00:17.941Z,101129.69
2022-08-06T12:02:58.734Z,100977.41
2022-08-06T12:05:57.373Z,100982.63
2022-08-06T12:08:42.375Z,100930.81
2022-08-06T12:11:26.114Z,100911.19
2022-08-06T12:14:32.131Z,100873.38
2022-08-06T12:16:53.048Z,100854.38
2022-08-06T12:19:24.328Z,100876.03
2022-08-06T12:21:57.234Z,100914.09
2022-08-06T12:24:45.564Z,100959.63
2022-08-06T12:27:24.265Z,100887.19
2022-08-06T12:29:58.066Z,100963.91
2022-08-06T12:32:30.200Z,101003.81
2022-08-06T12:35:00.103Z,101090.47
2022-08-06T12:37:41.385Z,101150.88
2022-08-06T12:40:36.790Z,100912.00
2022-08-06T12:43:15.522Z,100955.50
2022-08-06T12:46:07.461Z,101003.22
2022-08-06T12:48:33.097Z,101005.41
2022-08-06T12:51:11.072Z,101031.69
2022-08-06T12:53:40.405Z,101032.00
2022-08-06T12:56:32.017Z,101101.09
2022-08-06T12:59:03.675Z,101094.19
2022-08-06T13:02:09.059Z,100952.00
2022-08-06T13:04:22.667Z,100922.66
2022-08-06T13:07:00.483Z,100975.53
2022-08-06T13:09:35.060Z,101078.16
2022-08-06T13:12:28.869Z,101009.88
2022-08-06T13:15:02.811Z,101089.28
2022-08-06T13:18:02.655Z,101081.19
2022-08-06T13:20:38.473Z,101075.81
2022-08-06T13:23:06.388Z,100963.72
2022-08-06T13:25:51.888Z,100968.03
2022-08-06T13:28:29.560Z,101025.78
2022-08-06T13:31:01.413Z,101035.06
2022-08-06T13:33:29.351Z,101013.47
2022-08-06T13:36:10.674Z,100968.38
2022-08-06T13:38:41.955Z,100895.78
2022-08-06T13:41:10.809Z,100978.50
2022-08-06T13:43:53.965Z,100970.75
2022-08-06T13:46:28.380Z,100862.81
2022-08-06T13:48:59.090Z,100927.91
2022-08-06T13:51:35.251Z,100883.88
2022-08-06T13:54:15.718Z,100867.97
2022-08-06T13:56:48.598Z,100868.91
2022-08-06T13:59:39.860Z,100838.72
2022-08-06T14:02:09.391Z,100916.38
2022-08-06T14:04:40.541Z,100960.47
2022-08-06T14:07:08.411Z,100926.81
2022-08-06T14:09:57.640Z,100860.53
2022-08-06T14:12:29.389Z,100990.91
2022-08-06T14:14:59.537Z,100882.19
2022-08-06T14:17:34.494Z,100908.69
2022-08-06T14:20:16.151Z,100912.84
2022-08-06T14:22:48.311Z,100870.09
2022-08-06T14:25:17.376Z,100852.38
2022-08-06T14:27:45.800Z,100884.03
2022-08-06T14:30:29.433Z,100828.94
2022-08-06T14:33:03.038Z,100918.38
2022-08-06T14:35:45.986Z,100961.88
2022-08-06T14:38:19.049Z,100879.31
2022-08-06T14:41:04.552Z,100920.38
2022-08-06T14:43:56.361Z,100892.03
2022-08-06T14:46:30.283Z,100887.06
2022-08-06T14:48:59.500Z,100953.63
2022-08-06T14:51:37.347Z,100975.06
2022-08-06T14:54:16.841Z,100963.88
2022-08-06T14:56:52.496Z,100995.34
2022-08-06T14:59:22.117Z,101039.19
2022-08-06T15:01:52.501Z,101024.81
2022-08-06T15:04:23.332Z,101026.81
2022-08-06T15:06:57.070Z,101031.56
2022-08-06T15:10:03.937Z,100981.56
2022-08-06T15:12:13.437Z,100888.72
2022-08-06T15:14:51.423Z,100900.63
2022-08-06T15:17:30.451Z,100908.06
2022-08-06T15:20:09.260Z,100918.97
2022-08-06T15:22:39.338Z,100920.50
2022-08-06T15:25:09.722Z,100862.88
2022-08-06T15:27:50.408Z,100964.22
2022-08-06T15:30:18.958Z,100971.91
2022-08-06T15:32:57.060Z,101007.28
2022-08-06T15:35:31.150Z,100993.09
2022-08-06T15:38:08.144Z,100952.28
2022-08-06T15:40:36.796Z,100975.63
2022-08-06T15:43:04.484Z,100990.22
2022-08-06T15:45:51.230Z,100995.97
2022-08-06T15:48:28.638Z,100962.59
2022-08-06T15:51:28.539Z,100982.91
2022-08-06T15:53:54.586Z,100990.75
2022-08-06T15:56:33.685Z,100934.34
2022-08-06T15:59:11.978Z,100933.66
2022-08-06T16:02:00.882Z,100956.13
2022-08-06T16:04:35.481Z,100956.84
2022-08-06T16:07:04.179Z,100915.75
2022-08-06T16:10:01.098Z,100923.66
2022-08-06T16:12:21.022Z,100929.22
2022-08-06T16:14:57.775Z,100934.34
2022-08-06T16:17:52.704Z,100911.88
2022-08-06T16:20:20.587Z,100867.41
2022-08-06T16:22:51.658Z,100878.28
2022-08-06T16:25:21.883Z,100854.38
2022-08-06T16:27:51.909Z,100876.59
2022-08-06T16:30:20.132Z,100885.78
2022-08-06T16:32:49.024Z,100875.47
2022-08-06T16:35:21.655Z,100881.78
2022-08-06T16:37:51.461Z,100863.06
2022-08-06T16:40:20.436Z,100831.72
2022-08-06T16:45:36.965Z,100856.84
2022-08-06T16:48:25.712Z,100829.94
2022-08-06T16:51:02.529Z,100871.63
2022-08-06T16:54:14.070Z,100922.53
2022-08-06T16:56:18.621Z,100981.16
2022-08-06T16:58:48.549Z,100985.31
2022-08-06T17:02:15.297Z,101029.94
2022-08-06T17:04:08.853Z,101064.41
2022-08-06T17:06:37.833Z,101065.25
2022-08-06T17:09:17.172Z,101079.31
2022-08-06T17:14:36.275Z,101059.03
2022-08-06T17:20:01.416Z,100976.03
2022-08-06T17:22:32.270Z,100949.69
2022-08-06T17:25:00.534Z,100941.94
2022-08-06T17:27:43.076Z,100951.34
2022-08-06T17:30:16.850Z,100949.03
2022-08-06T17:32:47.212Z,100937.88
2022-08-06T17:35:16.247Z,100947.28
2022-08-06T17:37:47.563Z,100948.41
2022-08-06T17:43:12.706Z,100962.44
2022-08-06T17:45:52.197Z,100981.41
2022-08-06T17:48:27.548Z,100978.78
2022-08-06T17:50:58.918Z,100999.00
2022-08-06T17:53:53.496Z,100993.84
2022-08-06T17:56:29.141Z,101018.06
2022-08-06T17:59:11.174Z,101013.16
2022-08-06T18:01:45.743Z,101015.91
2022-08-06T18:04:30.312Z,101035.00
2022-08-06T18:07:10.698Z,101041.31
2022-08-06T18:10:11.115Z,101048.25
2022-08-06T18:12:29.836Z,101068.97
2022-08-06T18:14:59.304Z,101070.34
2022-08-06T18:17:47.748Z,101063.94
2022-08-06T18:20:16.235Z,101073.28
2022-08-06T18:22:44.392Z,101079.56
2022-08-06T18:25:21.475Z,101100.38
2022-08-06T18:28:03.768Z,101118.59
2022-08-06T18:30:47.701Z,101135.78
2022-08-06T18:33:15.910Z,101166.34
2022-08-06T18:35:55.861Z,101175.41
2022-08-06T18:38:31.928Z,101189.44
2022-08-06T18:41:14.262Z,101206.34
2022-08-06T18:43:54.552Z,101187.53
2022-08-06T18:46:56.910Z,101211.53
2022-08-06T18:49:16.672Z,101213.09
2022-08-06T18:51:48.386Z,101225.13
2022-08-06T18:54:22.810Z,101244.97
2022-08-06T18:56:54.706Z,101272.75
2022-08-06T18:59:29.030Z,101272.88
2022-08-06T19:01:59.612Z,101296.28
2022-08-06T19:04:29.317Z,101342.72
2022-08-06T19:07:00.333Z,101367.66
2022-08-06T19:09:33.420Z,101392.69
2022-08-06T19:12:12.671Z,101386.63
2022-08-06T19:14:44.440Z,101384.66
2022-08-06T19:17:17.328Z,101406.78
2022-08-06T19:20:19.086Z,101430.47
2022-08-06T19:22:38.955Z,101446.31
2022-08-06T19:25:10.188Z,101473.41
2022-08-06T19:28:30.559Z,101490.25
2022-08-06T19:30:41.296Z,101516.97
2022-08-06T19:33:15.545Z,101554.53
2022-08-06T19:36:03.153Z,101567.16
2022-08-06T19:38:33.644Z,101560.81
2022-08-06T19:41:01.928Z,101571.97
2022-08-06T19:44:27.686Z,101601.03
2022-08-06T19:46:30.085Z,101617.53
2022-08-06T19:49:03.473Z,101634.06
2022-08-06T19:52:03.808Z,101635.78
2022-08-06T19:54:27.839Z,101645.53
2022-08-06T19:57:08.575Z,101644.84
2022-08-06T20:00:52.362Z,101676.22
2022-08-06T20:02:29.087Z,101673.38
2022-08-06T20:04:57.663Z,101673.53
2022-08-06T20:07:34.218Z,101667.47
2022-08-06T20:10:03.736Z,101688.03
2022-08-06T20:12:34.906Z,101682.41
2022-08-06T20:15:06.371Z,101690.59
2022-08-06T20:17:48.918Z,101707.59
2022-08-06T20:20:28.714Z,101729.94
2022-08-06T20:22:59.957Z,101716.81
2022-08-06T20:25:27.983Z,101740.41
2022-08-06T20:29:08.502Z,101747.63
2022-08-06T20:30:58.205Z,101757.06
2022-08-06T20:33:27.075Z,101992.38
2022-08-06T20:35:56.490Z,101894.81
2022-08-06T20:38:39.892Z,101850.22
2022-08-06T20:41:57.159Z,101835.81
2022-08-06T20:44:06.073Z,101777.66
2022-08-06T20:47:00.862Z,101669.06
2022-08-06T20:50:02.470Z,101534.38
2022-08-06T20:52:18.469Z,101690.94
2022-08-06T20:54:52.042Z,101630.94
2022-08-06T20:57:27.522Z,101671.22
2022-08-06T20:59:56.771Z,101919.47
2022-08-06T21:02:32.143Z,101890.34
2022-08-06T21:05:12.953Z,101828.06
2022-08-06T21:07:56.623Z,101778.59
2022-08-06T21:10:30.386Z,101774.25
2022-08-06T21:13:02.243Z,101782.63
2022-08-06T21:15:54.149Z,101702.66
2022-08-06T21:18:21.156Z,101757.53
2022-08-06T21:20:50.914Z,101753.63
2022-08-06T21:23:21.322Z,101716.06
2022-08-06T21:25:58.728Z,101617.63
2022-08-06T21:28:27.317Z,101539.81
2022-08-06T21:30:59.313Z,101591.72
2022-08-06T21:33:29.034Z,101466.63
2022-08-06T21:35:59.643Z,101468.81
2022-08-06T21:38:29.427Z,101452.09
2022-08-06T21:40:57.540Z,101599.56
2022-08-06T21:43:56.212Z,101655.81
2022-08-06T21:46:27.542Z,101659.34
2022-08-06T21:49:09.380Z,101584.06
2022-08-06T21:51:40.312Z,101726.50
2022-08-06T21:54:22.023Z,101556.53
2022-08-06T21:56:58.256Z,101492.00
2022-08-06T21:59:30.689Z,101574.91
2022-08-06T22:02:18.370Z,101276.88
2022-08-06T22:04:58.755Z,101089.63
2022-08-06T22:08:05.511Z,101193.28
2022-08-06T22:10:15.264Z,101237.69
2022-08-06T22:13:12.384Z,101306.47
2022-08-06T22:15:45.290Z,101380.50
2022-08-06T22:18:17.029Z,101459.63
2022-08-06T22:20:48.948Z,101536.03
2022-08-06T22:23:17.438Z,101573.41
2022-08-06T22:25:45.444Z,101616.34
2022-08-06T22:28:23.743Z,101667.59
2022-08-06T22:31:05.520Z,101712.56
2022-08-06T22:33:45.649Z,101740.53
2022-08-06T22:38:19.289Z,101766.94
2022-08-06T22:39:15.632Z,101782.53
2022-08-06T22:42:05.996Z,101786.38
2022-08-06T22:44:36.473Z,101804.84
2022-08-06T22:47:15.018Z,101791.44
2022-08-06T22:50:01.733Z,101830.22
2022-08-06T22:53:02.487Z,101850.13
2022-08-06T22:55:21.847Z,101865.38
2022-08-06T22:58:04.308Z,101878.72
2022-08-06T23:00:48.144Z,101889.25
2022-08-06T23:03:16.096Z,101892.09
2022-08-06T23:05:46.839Z,101906.00
2022-08-06T23:08:17.154Z,101909.31
2022-08-06T23:10:49.157Z,101899.38
2022-08-06T23:13:25.933Z,101884.72
2022-08-06T23:15:54.584Z,101911.31
2022-08-06T23:18:28.587Z,101901.78
2022-08-06T23:21:22.087Z,101897.66
2022-08-06T23:23:54.249Z,101918.56
2022-08-06T23:26:31.602Z,101909.06
2022-08-06T23:29:00.315Z,101932.41
2022-08-06T23:31:33.869Z,101935.06
2022-08-06T23:34:20.902Z,101931.44
2022-08-06T23:36:54.772Z,101928.59
2022-08-06T23:39:29.105Z,101923.38
2022-08-06T23:42:14.545Z,101914.72
2022-08-06T23:44:51.697Z,101914.91
2022-08-06T23:47:54.468Z,101919.31
2022-08-06T23:50:11.202Z,101918.84
2022-08-06T23:52:41.857Z,101937.78
2022-08-06T23:55:25.905Z,101954.66
2022-08-06T23:57:57.615Z,101962.72
